Terminal Aerodrome Forecast
Issued by NWS

Home | Current Version | Previous Version | Text Only | Print | Product List | Glossary On
Versions: 1 2 3 4 5 6 7 8 9 10 11 12 13 14 15 16 17
000
FTUS46 KPQR 101732
TAFONP
TAF
KONP 101732Z 1018/1118 19012KT P6SM SCT040 BKN080
     FM102000 21014G24KT 5SM -RA BR BKN025 OVC040
     FM110100 22013G23KT 6SM -RA BR SCT015 BKN025 OVC040
     FM110400 25010KT P6SM -SHRA SCT020 BKN035 OVC050
     FM111000 23014G24KT P6SM -SHRA SCT020 BKN035 BKN060=

USA.gov is the U.S. government's official web portal to all federal, state and local government web resources and services.